Time;durP1;ratioP1;P1;durP2;ratioP2;P2;SDS_P1;SDS_P2;PMS_P1;PMS_P2;Temp;Humidity;BMP_temperature;BMP_pressure;BME280_temperature;BME280_humidity;BME280_pressure;Samples;Min_cycle;Max_cycle;Signal;HPM_P1;HPM_P2
2021/07/23 00:01:20;;;;;;;2.95;1.63;;;16.30;99.90;;;;;;5022809;28;20155;-69
2021/07/23 00:03:47;;;;;;;6.40;1.88;;;16.20;99.90;;;;;;5020487;28;20026;-70
2021/07/23 00:06:14;;;;;;;4.50;1.45;;;16.20;99.90;;;;;;5020585;28;20037;-69
2021/07/23 00:08:40;;;;;;;3.22;1.40;;;16.10;99.90;;;;;;5023918;28;20116;-70
2021/07/23 00:11:05;;;;;;;3.63;1.52;;;16.10;99.90;;;;;;5024113;28;20137;-69
2021/07/23 00:13:31;;;;;;;3.50;1.55;;;16.10;99.90;;;;;;5021418;28;20142;-69
2021/07/23 00:15:56;;;;;;;3.53;1.67;;;16.00;99.90;;;;;;5020161;28;20092;-69
2021/07/23 00:18:22;;;;;;;6.60;1.95;;;16.00;99.90;;;;;;5022831;28;20040;-69
2021/07/23 00:20:48;;;;;;;4.65;2.83;;;16.10;99.90;;;;;;5019165;28;20026;-69
2021/07/23 00:23:14;;;;;;;3.55;1.73;;;16.00;99.90;;;;;;5023936;28;20026;-69
2021/07/23 00:25:39;;;;;;;5.68;2.00;;;16.00;99.90;;;;;;5020488;28;20506;-69
2021/07/23 00:28:05;;;;;;;6.93;2.00;;;16.00;99.90;;;;;;5022758;28;20112;-69
2021/07/23 00:30:31;;;;;;;4.65;2.08;;;15.90;99.90;;;;;;5021567;28;20037;-69
2021/07/23 00:32:56;;;;;;;4.15;2.00;;;15.90;99.90;;;;;;5019798;28;20033;-69
2021/07/23 00:35:22;;;;;;;4.45;2.30;;;16.00;99.90;;;;;;5022081;28;20053;-69
2021/07/23 00:37:47;;;;;;;5.82;2.45;;;16.00;99.90;;;;;;5019624;28;20041;-69
2021/07/23 00:40:13;;;;;;;3.50;1.52;;;15.90;99.90;;;;;;5023406;28;20045;-69
2021/07/23 00:42:40;;;;;;;4.22;1.80;;;15.90;99.90;;;;;;5023619;28;20037;-69
2021/07/23 00:45:07;;;;;;;4.30;1.70;;;15.80;99.90;;;;;;5021805;28;20417;-69
2021/07/23 00:47:33;;;;;;;4.95;2.03;;;15.80;99.90;;;;;;5020413;28;20034;-69
2021/07/23 00:50:00;;;;;;;5.65;2.30;;;15.80;99.90;;;;;;5023648;28;20068;-70
2021/07/23 00:52:26;;;;;;;4.75;1.88;;;15.80;99.90;;;;;;5020098;28;20026;-69
2021/07/23 00:54:52;;;;;;;6.25;1.80;;;15.80;99.90;;;;;;5021063;28;20268;-69
2021/07/23 00:57:18;;;;;;;3.30;1.42;;;15.80;99.90;;;;;;5020437;28;20506;-69
2021/07/23 00:59:44;;;;;;;5.20;1.95;;;15.80;99.90;;;;;;5022878;28;20053;-69
2021/07/23 01:02:09;;;;;;;5.70;2.38;;;15.80;99.90;;;;;;5017685;28;20116;-69
2021/07/23 01:04:35;;;;;;;6.40;2.33;;;15.70;99.90;;;;;;5020717;28;20164;-69
2021/07/23 01:07:01;;;;;;;3.45;1.95;;;15.70;99.90;;;;;;5020348;28;20037;-69
2021/07/23 01:09:27;;;;;;;5.40;2.25;;;15.70;99.90;;;;;;5021520;28;20036;-69
2021/07/23 01:11:52;;;;;;;4.00;2.05;;;15.70;99.90;;;;;;5022400;28;20034;-70
2021/07/23 01:14:18;;;;;;;6.00;2.28;;;15.70;99.90;;;;;;5020420;28;20037;-69
2021/07/23 01:16:44;;;;;;;6.18;2.10;;;15.70;99.90;;;;;;5019311;28;20030;-69
2021/07/23 01:19:11;;;;;;;4.65;2.47;;;15.70;99.90;;;;;;5022132;28;20627;-69
2021/07/23 01:21:42;;;;;;;5.05;2.80;;;15.60;99.90;;;;;;5017074;28;20050;-69
2021/07/23 01:24:10;;;;;;;3.33;1.73;;;15.60;99.90;;;;;;5022771;28;20375;-69
2021/07/23 01:26:36;;;;;;;6.55;2.35;;;15.50;99.90;;;;;;5020730;28;20035;-69
2021/07/23 01:29:01;;;;;;;3.40;2.35;;;15.50;99.90;;;;;;5018550;28;20394;-69
2021/07/23 01:31:27;;;;;;;5.32;1.88;;;15.50;99.90;;;;;;5020671;28;20054;-69
2021/07/23 01:33:52;;;;;;;5.57;2.15;;;15.50;99.90;;;;;;5020373;28;20091;-71
2021/07/23 01:36:18;;;;;;;5.07;2.40;;;15.50;99.90;;;;;;5022920;28;20029;-69
2021/07/23 01:38:45;;;;;;;4.30;2.10;;;15.40;99.90;;;;;;5018715;28;20018;-69
2021/07/23 01:41:11;;;;;;;4.80;2.15;;;15.40;99.90;;;;;;5019588;28;20029;-69
2021/07/23 01:43:37;;;;;;;4.82;2.50;;;15.40;99.90;;;;;;5020537;28;20655;-70
2021/07/23 01:46:03;;;;;;;8.30;2.72;;;15.40;99.90;;;;;;5012987;28;20052;-69
2021/07/23 01:48:28;;;;;;;6.45;2.00;;;15.50;99.90;;;;;;5022594;28;20033;-70
2021/07/23 01:50:54;;;;;;;7.47;2.15;;;15.40;99.90;;;;;;5020550;28;20077;-69
2021/07/23 01:53:20;;;;;;;4.05;2.10;;;15.40;99.90;;;;;;5020093;28;20037;-70
2021/07/23 01:55:45;;;;;;;5.40;2.25;;;15.40;99.90;;;;;;5021931;28;20498;-69
2021/07/23 01:58:11;;;;;;;5.25;2.22;;;15.30;99.90;;;;;;5018246;28;20038;-69
2021/07/23 02:00:37;;;;;;;8.00;2.45;;;15.30;99.90;;;;;;5021900;28;20574;-69
2021/07/23 02:03:03;;;;;;;6.40;2.42;;;15.30;99.90;;;;;;5014280;28;20026;-69
2021/07/23 02:05:28;;;;;;;4.72;2.38;;;15.30;99.90;;;;;;5019088;28;20053;-69
2021/07/23 02:07:54;;;;;;;4.45;1.95;;;15.30;99.90;;;;;;5019388;28;20494;-69
2021/07/23 02:10:20;;;;;;;6.15;2.05;;;15.30;99.90;;;;;;5019285;28;20712;-69
2021/07/23 02:12:45;;;;;;;8.40;2.50;;;15.40;99.90;;;;;;5025175;28;20037;-69
2021/07/23 02:15:11;;;;;;;5.13;2.28;;;15.40;99.90;;;;;;5020066;28;20025;-70
2021/07/23 02:17:37;;;;;;;5.55;2.00;;;15.40;99.90;;;;;;5016746;28;20399;-69
2021/07/23 02:20:03;;;;;;;5.60;2.13;;;15.50;99.90;;;;;;5020876;28;20033;-69
2021/07/23 02:22:28;;;;;;;4.72;2.25;;;15.50;99.90;;;;;;5017975;28;20128;-69
2021/07/23 02:24:54;;;;;;;4.57;2.17;;;15.50;99.90;;;;;;5018756;28;20133;-70
2021/07/23 02:27:19;;;;;;;3.15;1.88;;;15.50;99.90;;;;;;5017169;28;20033;-69
2021/07/23 02:29:45;;;;;;;4.57;2.03;;;15.60;99.90;;;;;;5018570;28;20116;-70
2021/07/23 02:32:10;;;;;;;4.45;2.58;;;15.60;99.90;;;;;;5020079;28;20104;-69
2021/07/23 02:34:36;;;;;;;12.15;2.08;;;15.70;99.90;;;;;;5017477;28;20540;-70
2021/07/23 02:37:01;;;;;;;4.03;2.00;;;15.70;99.90;;;;;;5019332;28;20714;-69
2021/07/23 02:39:28;;;;;;;6.72;1.70;;;15.70;99.90;;;;;;5020526;28;20534;-69
2021/07/23 02:41:53;;;;;;;5.30;2.05;;;15.60;99.90;;;;;;5018503;28;20128;-70
2021/07/23 02:44:19;;;;;;;5.47;1.77;;;15.70;99.90;;;;;;5018756;28;20116;-69
2021/07/23 02:46:45;;;;;;;4.40;1.63;;;15.70;99.90;;;;;;5019311;28;20021;-69
2021/07/23 02:49:10;;;;;;;5.55;2.17;;;15.70;99.90;;;;;;5019953;28;20398;-69
2021/07/23 02:51:36;;;;;;;2.10;1.60;;;15.70;99.90;;;;;;5017377;28;20109;-70
2021/07/23 02:54:02;;;;;;;5.88;1.73;;;15.70;99.90;;;;;;5020707;28;20025;-70
2021/07/23 02:56:27;;;;;;;5.38;1.80;;;15.80;99.90;;;;;;5016901;28;20022;-69
2021/07/23 02:58:53;;;;;;;3.10;1.80;;;15.70;99.90;;;;;;5019294;28;20109;-69
2021/07/23 03:01:18;;;;;;;2.58;1.77;;;15.70;99.90;;;;;;5018598;28;20120;-70
2021/07/23 03:03:44;;;;;;;3.63;1.67;;;15.70;99.90;;;;;;5018585;28;20627;-69
2021/07/23 03:06:10;;;;;;;2.97;1.50;;;15.70;99.90;;;;;;5018919;28;20559;-70
2021/07/23 03:08:36;;;;;;;6.07;1.90;;;15.70;99.90;;;;;;5015583;28;20057;-69
2021/07/23 03:11:03;;;;;;;4.60;1.77;;;15.70;99.90;;;;;;5020044;28;20041;-69
2021/07/23 03:13:28;;;;;;;5.03;1.98;;;15.70;99.90;;;;;;5019876;28;20040;-69
2021/07/23 03:15:54;;;;;;;4.80;1.80;;;15.70;99.90;;;;;;5020575;28;20034;-69
2021/07/23 03:18:19;;;;;;;7.70;2.42;;;15.80;99.90;;;;;;5018169;28;20620;-69
2021/07/23 03:20:45;;;;;;;3.67;1.58;;;15.80;99.90;;;;;;5018510;28;20419;-69
2021/07/23 03:23:11;;;;;;;3.67;1.55;;;15.90;99.90;;;;;;5019633;28;20030;-69
2021/07/23 03:25:37;;;;;;;3.28;1.42;;;15.90;99.90;;;;;;5015468;28;20077;-69
2021/07/23 03:28:03;;;;;;;4.43;1.77;;;16.00;99.90;;;;;;5018785;28;20064;-69
2021/07/23 03:30:28;;;;;;;4.20;1.60;;;16.00;99.90;;;;;;5015974;28;20061;-71
2021/07/23 03:32:54;;;;;;;4.68;1.80;;;16.00;99.90;;;;;;5019793;28;20571;-69
2021/07/23 03:35:20;;;;;;;2.85;1.70;;;16.10;99.90;;;;;;5017412;28;20477;-70
2021/07/23 03:37:45;;;;;;;3.42;1.67;;;16.00;99.90;;;;;;5018421;28;20049;-69
2021/07/23 03:40:11;;;;;;;4.68;1.90;;;16.10;99.90;;;;;;5020201;28;20522;-69
2021/07/23 03:42:37;;;;;;;2.90;1.73;;;16.10;99.90;;;;;;5018918;28;20068;-69
2021/07/23 03:45:03;;;;;;;4.10;2.08;;;16.10;99.90;;;;;;5016048;28;20045;-69
2021/07/23 03:47:28;;;;;;;6.65;1.95;;;16.20;99.90;;;;;;5017908;28;20038;-70
2021/07/23 03:49:54;;;;;;;4.35;1.70;;;16.20;99.90;;;;;;5020162;28;20521;-69
2021/07/23 03:52:19;;;;;;;4.55;1.58;;;16.20;99.90;;;;;;5015940;28;20040;-70
2021/07/23 03:54:45;;;;;;;5.85;2.05;;;16.20;99.90;;;;;;5018174;28;20482;-69
2021/07/23 03:57:10;;;;;;;3.13;1.63;;;16.30;99.90;;;;;;5018906;28;20029;-69
2021/07/23 03:59:36;;;;;;;3.72;1.77;;;16.20;99.90;;;;;;5015384;28;20041;-69
2021/07/23 04:02:02;;;;;;;3.22;1.67;;;16.20;99.90;;;;;;5016360;28;20026;-69
2021/07/23 04:04:28;;;;;;;5.25;2.55;;;16.30;99.90;;;;;;5016583;28;20030;-69
2021/07/23 04:07:00;;;;;;;3.00;1.67;;;16.30;99.90;;;;;;5019121;28;20041;-69
2021/07/23 04:09:29;;;;;;;4.07;1.70;;;16.40;99.90;;;;;;5017083;28;20022;-69
2021/07/23 04:11:55;;;;;;;3.25;1.65;;;16.40;99.90;;;;;;5020211;28;20049;-69
2021/07/23 04:14:22;;;;;;;4.85;1.85;;;16.30;99.90;;;;;;5019258;28;20026;-69
2021/07/23 04:16:48;;;;;;;2.78;1.70;;;16.40;99.90;;;;;;5017343;28;20057;-69
2021/07/23 04:19:14;;;;;;;2.95;1.60;;;16.40;99.90;;;;;;5018021;28;20033;-69
2021/07/23 04:21:40;;;;;;;5.07;1.70;;;16.40;99.90;;;;;;5021593;28;20029;-69
2021/07/23 04:24:06;;;;;;;4.60;2.03;;;16.40;99.90;;;;;;5020382;28;20036;-69
2021/07/23 04:26:32;;;;;;;3.92;1.58;;;16.50;99.90;;;;;;5021569;28;20057;-69
2021/07/23 04:28:57;;;;;;;5.13;1.80;;;16.50;99.90;;;;;;5019615;28;20084;-70
2021/07/23 04:31:23;;;;;;;3.63;1.92;;;16.50;99.90;;;;;;5023058;28;20026;-69
2021/07/23 04:33:49;;;;;;;5.28;1.58;;;16.60;99.90;;;;;;5018568;28;20034;-70
2021/07/23 04:36:15;;;;;;;5.40;1.90;;;16.60;99.90;;;;;;5019327;28;20402;-70
2021/07/23 04:38:40;;;;;;;2.90;1.30;;;16.60;99.90;;;;;;5021384;28;20117;-69
2021/07/23 04:41:06;;;;;;;2.38;1.27;;;16.60;99.90;;;;;;5026699;28;20100;-69
2021/07/23 04:43:32;;;;;;;3.92;1.60;;;16.60;99.90;;;;;;5022746;28;20382;-69
2021/07/23 04:45:58;;;;;;;5.32;1.58;;;16.70;99.90;;;;;;5018915;28;20046;-69
2021/07/23 04:48:24;;;;;;;5.22;1.65;;;16.70;99.90;;;;;;5020461;28;20073;-69
2021/07/23 04:50:50;;;;;;;4.28;1.40;;;16.70;99.90;;;;;;5019000;28;20536;-70
2021/07/23 04:53:16;;;;;;;3.33;1.38;;;16.70;99.90;;;;;;5022084;28;20443;-69
2021/07/23 04:55:42;;;;;;;4.75;1.88;;;16.70;99.90;;;;;;5019024;28;20055;-69
2021/07/23 04:58:08;;;;;;;5.38;1.70;;;16.70;99.90;;;;;;5019786;28;20034;-69
2021/07/23 05:00:33;;;;;;;3.17;1.40;;;16.80;99.90;;;;;;5022356;28;20064;-70
2021/07/23 05:02:59;;;;;;;6.78;1.50;;;16.80;99.90;;;;;;5017863;28;20041;-69
2021/07/23 05:05:25;;;;;;;4.20;1.75;;;16.80;99.90;;;;;;5022389;28;20169;-69
2021/07/23 05:07:51;;;;;;;3.78;1.50;;;16.80;99.90;;;;;;5018665;28;20025;-69
2021/07/23 05:10:17;;;;;;;4.10;1.60;;;16.80;99.90;;;;;;5020399;28;20029;-69
2021/07/23 05:12:43;;;;;;;4.15;1.85;;;16.80;99.90;;;;;;5023142;28;20036;-69
2021/07/23 05:15:11;;;;;;;3.13;1.42;;;16.80;99.90;;;;;;5023291;28;20041;-69
2021/07/23 05:17:38;;;;;;;3.78;1.60;;;16.80;99.90;;;;;;5019174;28;20022;-69
2021/07/23 05:20:06;;;;;;;5.32;1.67;;;16.90;99.90;;;;;;5019309;28;20038;-69
2021/07/23 05:22:33;;;;;;;4.72;1.52;;;16.90;99.90;;;;;;5018466;28;20064;-70
2021/07/23 05:24:59;;;;;;;6.13;1.17;;;17.00;99.90;;;;;;5021469;28;20037;-70
2021/07/23 05:27:26;;;;;;;9.38;1.52;;;17.00;99.90;;;;;;5018581;28;20102;-70
2021/07/23 05:29:51;;;;;;;5.72;2.00;;;17.00;99.90;;;;;;5022479;28;20034;-70
2021/07/23 05:32:17;;;;;;;4.65;1.73;;;16.90;99.90;;;;;;5014542;28;20084;-69
2021/07/23 05:34:43;;;;;;;4.82;1.58;;;17.00;99.90;;;;;;5020974;28;20118;-70
2021/07/23 05:37:09;;;;;;;4.70;1.67;;;17.00;99.90;;;;;;5020282;28;20129;-70
2021/07/23 05:39:34;;;;;;;4.03;1.50;;;17.00;99.90;;;;;;5022876;28;20026;-70
2021/07/23 05:42:03;;;;;;;3.97;1.67;;;17.00;99.90;;;;;;5018226;28;20041;-70
2021/07/23 05:44:30;;;;;;;4.78;2.05;;;17.10;99.90;;;;;;5021531;28;20112;-69
2021/07/23 05:46:58;;;;;;;5.38;1.88;;;17.10;99.90;;;;;;5017621;28;20026;-70
2021/07/23 05:49:24;;;;;;;3.33;1.50;;;17.20;99.90;;;;;;5021472;28;20435;-70
2021/07/23 05:51:49;;;;;;;3.25;1.95;;;17.20;99.90;;;;;;5018375;28;20030;-70
2021/07/23 05:54:15;;;;;;;3.20;1.90;;;17.20;99.90;;;;;;5020391;28;20490;-70
2021/07/23 05:56:40;;;;;;;4.50;1.60;;;17.30;99.90;;;;;;5021242;28;20470;-70
2021/07/23 05:59:06;;;;;;;4.45;1.67;;;17.30;99.90;;;;;;5019462;28;20045;-70
2021/07/23 06:01:31;;;;;;;3.92;1.80;;;17.40;99.90;;;;;;5018518;28;20022;-70
2021/07/23 06:03:57;;;;;;;4.15;1.75;;;17.30;99.90;;;;;;5020705;28;20041;-70
2021/07/23 06:06:22;;;;;;;2.63;1.50;;;17.30;99.90;;;;;;5015834;28;20464;-70
2021/07/23 06:08:48;;;;;;;5.90;1.88;;;17.40;99.90;;;;;;5020683;28;20044;-70
2021/07/23 06:11:14;;;;;;;3.90;1.77;;;17.40;99.90;;;;;;5020621;28;20026;-70
2021/07/23 06:13:39;;;;;;;2.53;1.40;;;17.50;99.90;;;;;;5018976;28;20030;-70
2021/07/23 06:16:06;;;;;;;3.58;1.60;;;17.50;99.90;;;;;;5020942;28;20482;-70
2021/07/23 06:18:31;;;;;;;5.90;2.38;;;17.60;99.90;;;;;;5018562;28;20117;-69
2021/07/23 06:20:57;;;;;;;6.80;2.10;;;17.70;99.90;;;;;;5016856;28;20141;-70
2021/07/23 06:23:22;;;;;;;5.32;2.40;;;17.70;99.90;;;;;;5020388;28;20063;-70
2021/07/23 06:25:48;;;;;;;2.78;1.60;;;17.80;99.90;;;;;;5017198;28;20046;-70
2021/07/23 06:28:14;;;;;;;4.68;2.17;;;17.80;99.90;;;;;;5018221;28;20152;-69
2021/07/23 06:30:40;;;;;;;3.33;1.92;;;17.90;99.90;;;;;;5016563;28;20045;-69
2021/07/23 06:33:05;;;;;;;2.97;1.58;;;18.00;99.90;;;;;;5020481;28;20490;-70
2021/07/23 06:35:32;;;;;;;3.35;1.70;;;17.90;99.90;;;;;;5017667;28;20108;-70
2021/07/23 06:37:58;;;;;;;5.05;1.80;;;18.00;99.90;;;;;;5017079;28;20036;-70
2021/07/23 06:40:24;;;;;;;2.97;1.48;;;18.00;99.90;;;;;;5036824;28;20025;-69
2021/07/23 06:42:50;;;;;;;2.60;1.50;;;18.10;99.90;;;;;;5038388;28;20105;-70
2021/07/23 06:45:16;;;;;;;6.57;2.00;;;18.10;99.90;;;;;;5037891;28;20112;-69
2021/07/23 06:47:41;;;;;;;3.65;1.65;;;18.10;99.90;;;;;;5035159;28;20041;-70
2021/07/23 06:50:07;;;;;;;3.58;2.00;;;18.20;99.90;;;;;;5036035;28;20082;-69
2021/07/23 06:52:34;;;;;;;4.07;1.67;;;18.20;99.90;;;;;;5037295;28;20095;-70
2021/07/23 06:55:00;;;;;;;4.47;1.98;;;18.20;99.90;;;;;;5039443;28;20086;-69
2021/07/23 06:57:26;;;;;;;5.53;2.03;;;18.20;99.90;;;;;;5038783;28;20036;-70
2021/07/23 06:59:51;;;;;;;4.35;2.33;;;18.30;99.90;;;;;;5037722;28;20025;-70
2021/07/23 07:02:17;;;;;;;3.63;1.63;;;18.20;99.90;;;;;;5039339;28;20083;-70
2021/07/23 07:04:44;;;;;;;3.75;1.83;;;18.20;99.90;;;;;;5033123;28;20044;-70
2021/07/23 07:07:11;;;;;;;3.70;1.90;;;18.30;99.90;;;;;;5035589;28;20037;-70
2021/07/23 07:09:37;;;;;;;7.53;2.03;;;18.30;99.90;;;;;;5038337;28;20022;-70
2021/07/23 07:12:03;;;;;;;4.28;2.03;;;18.40;99.90;;;;;;5037989;28;20574;-70
2021/07/23 07:14:29;;;;;;;3.78;2.13;;;18.40;99.90;;;;;;5036919;28;20052;-69
2021/07/23 07:16:55;;;;;;;7.97;2.00;;;18.50;99.90;;;;;;5039951;28;20033;-69
2021/07/23 07:19:22;;;;;;;4.20;1.83;;;18.50;99.90;;;;;;5025866;28;20025;-70
2021/07/23 07:21:48;;;;;;;4.43;1.92;;;18.50;99.90;;;;;;5026130;28;20037;-69
2021/07/23 07:24:18;;;;;;;6.40;1.83;;;18.50;99.90;;;;;;5035579;28;20033;-70
2021/07/23 07:26:45;;;;;;;4.32;2.53;;;18.50;99.90;;;;;;5031454;28;20112;-69
2021/07/23 07:29:12;;;;;;;5.07;2.22;;;18.50;99.90;;;;;;5030496;28;20116;-69
2021/07/23 07:31:37;;;;;;;8.40;2.63;;;18.60;99.90;;;;;;5022585;28;20500;-69
2021/07/23 07:34:03;;;;;;;5.78;2.28;;;18.50;99.90;;;;;;5036446;28;20075;-69
2021/07/23 07:36:29;;;;;;;8.30;2.60;;;18.60;99.90;;;;;;5039087;28;20845;-70
2021/07/23 07:38:58;;;;;;;4.15;2.00;;;18.60;99.90;;;;;;5043216;28;20538;-69
2021/07/23 07:41:24;;;;;;;4.93;2.20;;;18.60;99.90;;;;;;5041121;28;20416;-70
2021/07/23 07:43:49;;;;;;;4.50;1.70;;;18.70;99.90;;;;;;5043830;28;20037;-70
2021/07/23 07:46:15;;;;;;;4.70;2.25;;;18.70;99.90;;;;;;5041736;28;20047;-69
2021/07/23 07:48:40;;;;;;;6.90;2.03;;;18.80;99.90;;;;;;5043556;28;20029;-70
2021/07/23 07:51:09;;;;;;;4.93;1.90;;;18.90;99.90;;;;;;5040664;28;20503;-69
2021/07/23 07:53:37;;;;;;;3.47;1.58;;;18.90;99.90;;;;;;5043089;28;20041;-70
2021/07/23 07:56:12;;;;;;;4.53;2.08;;;19.00;99.90;;;;;;5046624;28;20064;-69
2021/07/23 07:58:38;;;;;;;4.40;2.20;;;19.10;99.90;;;;;;5042221;28;20069;-69
2021/07/23 08:01:05;;;;;;;4.72;2.03;;;19.20;99.90;;;;;;5027673;28;20592;-69
2021/07/23 08:03:31;;;;;;;5.65;2.28;;;19.10;99.90;;;;;;5023590;28;20025;-69
2021/07/23 08:06:01;;;;;;;4.90;1.70;;;19.10;99.90;;;;;;5024521;28;20056;-70
2021/07/23 08:08:27;;;;;;;;;;;19.20;99.90;;;;;;5027072;28;20125;-70
2021/07/23 08:10:52;;;;;;;4.28;1.67;;;19.20;99.90;;;;;;5025107;28;20487;-69
2021/07/23 08:13:18;;;;;;;3.92;1.85;;;19.30;99.90;;;;;;5023282;28;20038;-69
2021/07/23 08:15:44;;;;;;;4.03;1.75;;;19.30;99.90;;;;;;5020878;28;20184;-70
2021/07/23 08:18:10;;;;;;;3.83;2.00;;;19.20;99.90;;;;;;5019944;28;20398;-69
2021/07/23 08:20:37;;;;;;;4.47;2.00;;;19.30;99.90;;;;;;5020946;28;20061;-69
2021/07/23 08:23:04;;;;;;;3.55;1.95;;;19.20;99.90;;;;;;5045295;28;20029;-70
2021/07/23 08:25:30;;;;;;;3.40;1.52;;;19.20;99.90;;;;;;5042017;28;20143;-70
2021/07/23 08:27:55;;;;;;;3.33;1.48;;;19.30;99.90;;;;;;5044446;28;20121;-70
2021/07/23 08:30:21;;;;;;;4.22;1.98;;;19.30;99.90;;;;;;5045478;28;20045;-70
2021/07/23 08:32:48;;;;;;;4.53;1.83;;;19.40;99.90;;;;;;5040190;28;20721;-70
2021/07/23 08:35:14;;;;;;;5.28;1.98;;;19.40;99.90;;;;;;5043911;28;20041;-69
2021/07/23 08:37:39;;;;;;;6.32;1.80;;;19.40;99.90;;;;;;5044527;28;20089;-69
2021/07/23 08:40:06;;;;;;;4.72;1.77;;;19.30;99.90;;;;;;5047124;28;20037;-69
2021/07/23 08:42:34;;;;;;;6.53;1.98;;;19.30;99.90;;;;;;5045507;28;20045;-70
2021/07/23 08:45:01;;;;;;;6.50;2.47;;;19.50;99.90;;;;;;5046571;28;20063;-70
2021/07/23 08:47:29;;;;;;;4.22;1.73;;;19.40;99.90;;;;;;5045969;28;21458;-70
2021/07/23 08:49:55;;;;;;;7.97;2.47;;;19.50;99.90;;;;;;5045544;28;20036;-69
2021/07/23 08:52:38;;;;;;;5.50;2.22;;;19.60;99.90;;;;;;5045228;28;20037;-71
2021/07/23 08:55:06;;;;;;;5.88;1.95;;;19.70;99.90;;;;;;5044957;28;20033;-70
2021/07/23 08:57:32;;;;;;;7.88;2.50;;;19.70;99.90;;;;;;5045717;28;20048;-70
2021/07/23 08:59:57;;;;;;;5.00;2.00;;;19.80;99.90;;;;;;5045835;28;20041;-69
2021/07/23 09:02:23;;;;;;;5.50;2.47;;;19.80;99.90;;;;;;5045320;28;20560;-70
2021/07/23 09:04:48;;;;;;;4.85;2.15;;;19.90;99.90;;;;;;5044458;28;20557;-70
2021/07/23 09:07:20;;;;;;;8.27;2.00;;;19.90;99.90;;;;;;5045333;28;20041;-70
2021/07/23 09:10:06;;;;;;;9.40;2.42;;;20.00;99.90;;;;;;5045905;28;20032;-70
2021/07/23 09:12:43;;;;;;;7.80;2.20;;;20.00;99.90;;;;;;5038593;28;20478;-69
2021/07/23 09:15:30;;;;;;;8.63;2.25;;;20.10;99.90;;;;;;5037502;28;20740;-70
2021/07/23 09:17:57;;;;;;;5.85;2.22;;;20.20;99.90;;;;;;5033589;28;20514;-70
2021/07/23 09:20:29;;;;;;;5.60;2.28;;;20.20;99.90;;;;;;5035635;28;20025;-69
2021/07/23 09:22:57;;;;;;;6.47;2.33;;;20.20;99.90;;;;;;5036407;28;20034;-70
2021/07/23 09:25:32;;;;;;;5.32;2.08;;;20.20;99.90;;;;;;5037170;28;20083;-70
2021/07/23 09:27:58;;;;;;;9.70;2.00;;;20.20;99.90;;;;;;5036620;28;20029;-70
2021/07/23 09:30:44;;;;;;;5.03;1.80;;;20.40;99.90;;;;;;5038464;28;20459;-70
2021/07/23 09:33:10;;;;;;;6.72;1.73;;;20.50;99.90;;;;;;5035101;28;20040;-70
2021/07/23 09:35:36;;;;;;;11.13;3.20;;;20.60;99.90;;;;;;5059665;28;20112;-70
2021/07/23 09:38:03;;;;;;;4.43;2.30;;;20.70;99.90;;;;;;5036831;28;20036;-70
2021/07/23 09:40:44;;;;;;;6.40;2.10;;;20.80;99.90;;;;;;5045210;28;20159;-70
2021/07/23 09:43:10;;;;;;;6.85;2.22;;;20.80;99.90;;;;;;5037157;28;20049;-70
2021/07/23 09:45:36;;;;;;;13.05;2.30;;;20.90;99.90;;;;;;5037815;28;20098;-70
2021/07/23 09:48:10;;;;;;;5.40;1.88;;;20.80;99.90;;;;;;5035267;28;21377;-70
2021/07/23 09:50:39;;;;;;;5.18;2.20;;;20.70;99.90;;;;;;5036469;28;20058;-70
2021/07/23 09:53:09;;;;;;;3.25;1.55;;;20.60;99.90;;;;;;5039028;28;20033;-70
2021/07/23 09:55:35;;;;;;;3.72;1.55;;;20.50;99.90;;;;;;5038483;28;20055;-70
2021/07/23 09:58:05;;;;;;;4.05;1.92;;;20.30;99.90;;;;;;5036995;28;20052;-69
2021/07/23 10:00:42;;;;;;;8.40;2.10;;;20.20;99.90;;;;;;5039497;28;20029;-70
2021/07/23 10:03:12;;;;;;;6.78;1.80;;;20.30;99.90;;;;;;5036768;28;20049;-70
2021/07/23 10:05:50;;;;;;;5.57;1.77;;;20.30;99.90;;;;;;5040629;28;20033;-70
2021/07/23 10:08:22;;;;;;;3.63;1.58;;;20.30;99.90;;;;;;5036391;28;20398;-70
2021/07/23 10:10:51;;;;;;;3.90;1.92;;;20.30;99.90;;;;;;5038295;28;20068;-70
2021/07/23 10:13:27;;;;;;;8.27;2.88;;;20.20;99.90;;;;;;5037992;28;20028;-70
2021/07/23 10:15:53;;;;;;;6.55;2.00;;;20.20;99.90;;;;;;5035903;28;20067;-70
2021/07/23 10:18:19;;;;;;;4.03;1.70;;;20.20;99.90;;;;;;5043097;28;20036;-70
2021/07/23 10:20:48;;;;;;;4.00;2.65;;;20.20;99.90;;;;;;5036196;28;20033;-70
2021/07/23 10:23:22;;;;;;;8.32;2.00;;;20.30;99.90;;;;;;5039670;28;20033;-69
2021/07/23 10:25:52;;;;;;;5.68;2.53;;;20.40;99.90;;;;;;5039097;28;20048;-70
2021/07/23 10:28:40;;;;;;;5.47;1.92;;;20.50;99.90;;;;;;5037748;28;20488;-69
2021/07/23 10:31:17;;;;;;;5.00;2.05;;;20.50;99.90;;;;;;5040483;28;20378;-70
2021/07/23 10:33:51;;;;;;;2.80;1.50;;;20.50;99.90;;;;;;5037976;28;20037;-69
2021/07/23 10:36:26;;;;;;;5.90;2.05;;;20.60;99.90;;;;;;5039830;28;20481;-69
2021/07/23 10:39:13;;;;;;;4.43;1.65;;;20.70;99.90;;;;;;5039288;28;20047;-69
2021/07/23 10:42:02;;;;;;;4.60;1.73;;;20.70;99.90;;;;;;5037912;28;20171;-70
2021/07/23 10:44:28;;;;;;;5.07;1.80;;;20.70;99.90;;;;;;5027712;28;20036;-69
2021/07/23 10:46:58;;;;;;;7.07;1.95;;;20.70;99.90;;;;;;5037486;28;20548;-69
2021/07/23 10:49:30;;;;;;;5.80;2.13;;;20.70;99.90;;;;;;5037786;28;20132;-70
2021/07/23 10:52:03;;;;;;;2.97;1.73;;;20.80;99.90;;;;;;5037696;28;20044;-70
2021/07/23 10:54:33;;;;;;;5.70;1.63;;;20.80;99.90;;;;;;5037957;28;20051;-69
2021/07/23 10:57:03;;;;;;;6.43;1.70;;;21.00;99.90;;;;;;5037506;28;20033;-69
2021/07/23 10:59:43;;;;;;;3.63;2.08;;;21.30;99.90;;;;;;5038468;28;20059;-70
2021/07/23 11:02:15;;;;;;;;;;;21.50;99.90;;;;;;5036891;28;20494;-70
2021/07/23 11:04:44;;;;;;;6.70;2.00;;;21.70;99.90;;;;;;5038815;28;20450;-70
2021/07/23 11:07:11;;;;;;;5.20;1.98;;;21.90;99.90;;;;;;5035614;28;20046;-70
2021/07/23 11:09:38;;;;;;;3.92;1.98;;;22.10;99.70;;;;;;5039595;28;20025;-70
2021/07/23 11:12:18;;;;;;;2.95;1.48;;;22.30;99.80;;;;;;5040369;28;20030;-69
2021/07/23 11:14:50;;;;;;;6.27;1.67;;;22.50;97.60;;;;;;5037156;28;20690;-69
2021/07/23 11:17:16;;;;;;;9.95;2.03;;;22.60;96.90;;;;;;5038873;28;20474;-69
2021/07/23 11:19:46;;;;;;;2.67;1.50;;;22.60;97.10;;;;;;5036764;28;20087;-70
2021/07/23 11:22:21;;;;;;;1.80;1.17;;;22.70;97.00;;;;;;5039445;28;20083;-69
2021/07/23 11:24:47;;;;;;;4.90;1.80;;;22.60;96.30;;;;;;5037325;28;20037;-70
2021/07/23 11:27:23;;;;;;;4.43;1.65;;;22.70;96.60;;;;;;5039616;28;20385;-69
2021/07/23 11:29:49;;;;;;;7.72;1.88;;;22.80;96.00;;;;;;5036735;28;20108;-70
2021/07/23 11:32:17;;;;;;;4.13;1.90;;;22.90;95.40;;;;;;5041356;28;20578;-70
2021/07/23 11:34:44;;;;;;;3.30;1.55;;;22.90;94.90;;;;;;5041879;28;20021;-71
2021/07/23 11:37:14;;;;;;;6.03;1.40;;;22.70;96.00;;;;;;5040633;28;20038;-69
2021/07/23 11:39:52;;;;;;;3.45;2.15;;;22.80;95.70;;;;;;5045037;28;20095;-70
2021/07/23 11:42:18;;;;;;;4.32;1.30;;;22.80;96.20;;;;;;5041557;28;20073;-70
2021/07/23 11:45:10;;;;;;;3.05;1.60;;;22.90;94.70;;;;;;5042127;28;20048;-70
2021/07/23 11:47:44;;;;;;;3.13;1.35;;;22.80;95.20;;;;;;5039453;28;20029;-70
2021/07/23 11:50:16;;;;;;;2.15;1.25;;;22.90;95.10;;;;;;5045215;28;20037;-70
2021/07/23 11:52:43;;;;;;;4.38;1.67;;;23.00;94.80;;;;;;5044799;28;20036;-70
2021/07/23 11:55:10;;;;;;;4.60;2.13;;;23.00;95.30;;;;;;5041052;28;20494;-70
2021/07/23 11:57:46;;;;;;;3.05;1.67;;;23.30;94.20;;;;;;5042832;28;20581;-70
2021/07/23 12:00:24;;;;;;;7.28;1.63;;;23.30;93.80;;;;;;5043432;28;20056;-70
2021/07/23 12:02:54;;;;;;;6.15;2.17;;;23.30;94.10;;;;;;5040807;28;20493;-70
2021/07/23 12:05:21;;;;;;;5.70;2.00;;;23.20;94.10;;;;;;5040958;28;20032;-69
2021/07/23 12:08:01;;;;;;;3.33;1.75;;;23.20;94.10;;;;;;5043359;28;20040;-70
2021/07/23 12:10:31;;;;;;;3.78;1.98;;;23.30;93.90;;;;;;5038738;28;20511;-72
2021/07/23 12:13:03;;;;;;;4.55;2.13;;;23.50;93.10;;;;;;5038951;28;20025;-69
2021/07/23 12:15:29;;;;;;;8.18;2.22;;;23.50;93.00;;;;;;5039339;28;20025;-71
2021/07/23 12:17:55;;;;;;;5.18;1.92;;;23.30;93.10;;;;;;5041171;28;20389;-70
2021/07/23 12:20:28;;;;;;;7.20;2.30;;;23.20;94.00;;;;;;5038467;28;20072;-70
2021/07/23 12:23:01;;;;;;;5.97;1.80;;;23.10;93.70;;;;;;5039463;28;20098;-70
2021/07/23 12:25:28;;;;;;;5.88;2.22;;;23.30;94.00;;;;;;5048260;28;20022;-70
2021/07/23 12:28:13;;;;;;;4.70;2.15;;;23.40;93.50;;;;;;5037034;28;20044;-70
2021/07/23 12:30:41;;;;;;;5.03;2.00;;;23.30;93.40;;;;;;5040842;28;20618;-70
2021/07/23 12:33:12;;;;;;;2.70;1.67;;;23.10;93.10;;;;;;5038578;28;20048;-70
2021/07/23 12:35:38;;;;;;;3.30;2.10;;;23.00;94.10;;;;;;5037097;28;20450;-70
2021/07/23 12:38:08;;;;;;;5.10;1.92;;;22.90;94.20;;;;;;5029514;28;20067;-70
2021/07/23 12:40:50;;;;;;;;;;;22.90;94.40;;;;;;5038920;28;20044;-70
2021/07/23 12:43:18;;;;;;;5.88;2.15;;;22.90;94.50;;;;;;5034616;28;19924;-69
2021/07/23 12:45:45;;;;;;;5.50;2.30;;;23.00;94.90;;;;;;5036432;28;20052;-70
2021/07/23 12:48:15;;;;;;;3.25;1.80;;;23.10;94.30;;;;;;5035055;28;20040;-69
2021/07/23 12:50:42;;;;;;;7.50;2.33;;;23.00;94.60;;;;;;5035112;28;20040;-70